Airfield :
LOGIN :

Register | Disclaimer

   EN    FR    IT 

 










Legend :    VFR   Marginal VFR   IFR   Intensive IFR   Very Intensive IFR
Visi :
Ceiling :
>= 8 km
>= 3000ft
5 to 8 km
1000 to 3000 ft
1500m to 5 km
500 to 1000 ft
800 to 1500m
200 to 500 ft
< 800m
< 200 ft
Symbols :   Thunderstorms  Fog  Heavy snow  Heavy precipitations  Wind > 20 kt
SIGMETs :     Misc.  Thunderstorms  Icing  Turbulence  Mountain Waves  Volcanic Ashes







- Airport Elevation : 274 ft
- IATA code : PUY


LDPL - Pula

CURRENT METAR :
  • 171430Z 06023G34KT 9999 FEW044 03/M06 Q1016

EXPIRED METARs :
  • 171400Z 06022G32KT 9999 FEW034 03/M05 Q1015
  • 171330Z 06024G35KT 9999 FEW034 04/M06 Q1015
  • 171300Z 06023G35KT 9999 FEW034 04/M06 Q1015
  • 171230Z 06020G34KT 030V090 9999 FEW030 04/M05 Q1015
  • 171200Z 07022G32KT 9999 FEW030 04/M05 Q1015

TAF TAF LDPL
Valid from the 17 at 12:00 until the 18 at 12:00 UTC


171125Z 1712/1812 06025G35KT CAVOK TX04/1713Z TN01/1801Z
No reported NOTAMs for that airfield.
2 SIGMETs reported for the Zagreb FIR (LDZO) :
 
Severe turbulence
LDZO SIGMET 4 VALID 171400/171800 LDZA
LDZO ZAGREB FIR SEV TURB FCST WI N4542 E01459 - N4326 E01716 - N4302 E01624 - N4457 E01334 - N4540 E01323 - N4542 E01459 SFC/FL070 STNR NC=
Severe turbulence
LDZO SIGMET 3 VALID 171000/171400 LDZA
LDZO ZAGREB FIR SEV TURB FCST WI N4528 E01459 - N4343 E01648 - N4323 E01556 - N4457 E01334 - N4531 E01323 - N4528 E01459 SFC/FL070 STNR NC=



MET'MAP, your aeronautical weather chart ! - Copyright ORBIFLY December 2007 - Disclaimer

ORBIFLY MET'MAP TEAM :

Programming & Development : Alexandra Zaïnal
Concept & Development : Baudouin d'Aumeries
Co-Development & Prog : Marc-Olivier Méhu
Technical & hardware support : Manuel Goepfert

Contact : metmap@orbifly.com




SOURCES & CREDITS :

   NOAA